Time;durP1;ratioP1;P1;durP2;ratioP2;P2;SDS_P1;SDS_P2;PMS_P1;PMS_P2;Temp;Humidity;BMP_temperature;BMP_pressure;BME280_temperature;BME280_humidity;BME280_pressure;Samples;Min_cycle;Max_cycle;Signal;HPM_P1;HPM_P2
2023/08/30 00:00:50;;;;;;;18.98;12.02;;;;;;;;;;5074782;28;20016;-58
2023/08/30 00:03:16;;;;;;;19.13;10.93;;;;;;;;;;5092935;28;20031;-56
2023/08/30 00:05:42;;;;;;;19.92;11.88;;;;;;;;;;5092772;28;20020;-57
2023/08/30 00:08:09;;;;;;;18.80;11.35;;;;;;;;;;5092982;28;20032;-56
2023/08/30 00:10:35;;;;;;;20.17;11.93;;;;;;;;;;5092741;28;20503;-58
2023/08/30 00:13:01;;;;;;;18.58;12.10;;;;;;;;;;5092645;28;20028;-58
2023/08/30 00:15:28;;;;;;;18.23;11.98;;;;;;;;;;5092460;28;20470;-57
2023/08/30 00:17:54;;;;;;;18.23;12.20;;;;;;;;;;5092706;28;20360;-58
2023/08/30 00:20:20;;;;;;;18.65;12.02;;;;;;;;;;5092796;28;20020;-58
2023/08/30 00:22:46;;;;;;;19.83;12.07;;;;;;;;;;5092641;28;20028;-59
2023/08/30 00:25:12;;;;;;;19.50;12.02;;;;;;;;;;5092222;28;20073;-61
2023/08/30 00:27:38;;;;;;;19.77;12.43;;;;;;;;;;5092398;28;20480;-56
2023/08/30 00:30:04;;;;;;;19.95;12.23;;;;;;;;;;5092705;28;20039;-55
2023/08/30 00:32:30;;;;;;;19.13;12.25;;;;;;;;;;5092646;28;20047;-57
2023/08/30 00:34:56;;;;;;;20.25;13.20;;;;;;;;;;5092396;28;20073;-58
2023/08/30 00:37:22;;;;;;;18.23;12.48;;;;;;;;;;5092080;28;20403;-55
2023/08/30 00:39:48;;;;;;;19.67;13.10;;;;;;;;;;5092184;28;20476;-58
2023/08/30 00:42:14;;;;;;;18.73;12.73;;;;;;;;;;5074379;28;20034;-56
2023/08/30 00:44:41;;;;;;;18.45;12.18;;;;;;;;;;5073691;28;20392;-57
2023/08/30 00:47:07;;;;;;;19.10;13.32;;;;;;;;;;5092284;28;20114;-58
2023/08/30 00:49:33;;;;;;;19.45;13.18;;;;;;;;;;5092393;28;20035;-55
2023/08/30 00:52:01;;;;;;;19.52;13.75;;;;;;;;;;5073771;28;20059;-56
2023/08/30 00:54:27;;;;;;;18.50;12.95;;;;;;;;;;5073542;28;20577;-57
2023/08/30 00:56:53;;;;;;;18.92;12.65;;;;;;;;;;5091919;28;20020;-56
2023/08/30 00:59:19;;;;;;;19.95;13.43;;;;;;;;;;5092407;28;20024;-56
2023/08/30 01:01:46;;;;;;;19.38;13.07;;;;;;;;;;5095267;28;20066;-58
2023/08/30 01:04:12;;;;;;;19.25;13.13;;;;;;;;;;5074041;28;20058;-57
2023/08/30 01:06:38;;;;;;;21.27;13.68;;;;;;;;;;5091677;28;20112;-58
2023/08/30 01:09:04;;;;;;;23.48;13.00;;;;;;;;;;5091813;28;20020;-59
2023/08/30 01:11:39;;;;;;;22.60;13.57;;;;;;;;;;5091572;28;20098;-56
2023/08/30 01:14:08;;;;;;;20.30;13.85;;;;;;;;;;5073251;28;20150;-59
2023/08/30 01:16:35;;;;;;;21.83;14.35;;;;;;;;;;5091584;28;20032;-57
2023/08/30 01:19:05;;;;;;;21.60;13.97;;;;;;;;;;5091537;28;20042;-58
2023/08/30 01:21:37;;;;;;;22.30;15.73;;;;;;;;;;5091486;28;20028;-54
2023/08/30 01:24:04;;;;;;;20.48;13.93;;;;;;;;;;5091249;28;20345;-58
2023/08/30 01:26:45;;;;;;;20.75;13.68;;;;;;;;;;5090842;28;20438;-57
2023/08/30 01:29:12;;;;;;;20.27;13.38;;;;;;;;;;5091309;28;20798;-57
2023/08/30 01:31:39;;;;;;;21.13;15.20;;;;;;;;;;5091830;28;20020;-58
2023/08/30 01:34:05;;;;;;;21.85;14.05;;;;;;;;;;5073034;28;20042;-57
2023/08/30 01:36:31;;;;;;;20.17;13.43;;;;;;;;;;5091098;28;20027;-59
2023/08/30 01:38:59;;;;;;;22.02;14.93;;;;;;;;;;5090290;28;20032;-56
2023/08/30 01:41:26;;;;;;;21.60;14.25;;;;;;;;;;5089558;28;20024;-52
2023/08/30 01:43:53;;;;;;;20.98;15.07;;;;;;;;;;5074464;28;20077;-57
2023/08/30 01:46:19;;;;;;;21.90;15.50;;;;;;;;;;5090831;28;20044;-55
2023/08/30 01:48:46;;;;;;;23.63;15.95;;;;;;;;;;5090905;28;20043;-59
2023/08/30 01:51:13;;;;;;;22.40;15.60;;;;;;;;;;5073119;28;20024;-56
2023/08/30 01:53:39;;;;;;;20.77;15.05;;;;;;;;;;5091082;28;20052;-57
2023/08/30 01:56:05;;;;;;;22.55;15.77;;;;;;;;;;5090716;28;20393;-59
2023/08/30 01:58:31;;;;;;;23.80;16.60;;;;;;;;;;5090974;28;20028;-57
2023/08/30 02:00:57;;;;;;;23.25;16.13;;;;;;;;;;5090840;28;20054;-56
2023/08/30 02:03:23;;;;;;;23.65;16.90;;;;;;;;;;5090954;28;20025;-62
2023/08/30 02:05:52;;;;;;;22.40;15.93;;;;;;;;;;5090712;28;20122;-59
2023/08/30 02:08:18;;;;;;;;;;;;;;;;;;5091450;28;20086;-61
2023/08/30 02:10:56;;;;;;;26.20;17.40;;;;;;;;;;5072660;28;20357;-59
2023/08/30 02:13:23;;;;;;;22.92;16.70;;;;;;;;;;5090884;28;20495;-59
2023/08/30 02:15:50;;;;;;;23.92;16.92;;;;;;;;;;5090495;28;20027;-58
2023/08/30 02:18:16;;;;;;;23.65;17.42;;;;;;;;;;5091037;28;20062;-56
2023/08/30 02:20:42;;;;;;;25.15;17.35;;;;;;;;;;5073220;28;20078;-56
2023/08/30 02:23:09;;;;;;;25.65;17.52;;;;;;;;;;5091176;28;20032;-58
2023/08/30 02:25:35;;;;;;;25.25;18.63;;;;;;;;;;5090618;28;20115;-58
2023/08/30 02:28:02;;;;;;;24.92;17.00;;;;;;;;;;5090670;28;20055;-57
2023/08/30 02:30:28;;;;;;;23.63;16.73;;;;;;;;;;5090513;28;20024;-56
2023/08/30 02:32:54;;;;;;;25.40;18.40;;;;;;;;;;5072723;28;20020;-59
2023/08/30 02:35:20;;;;;;;26.88;19.60;;;;;;;;;;5090276;28;20476;-57
2023/08/30 02:37:46;;;;;;;27.05;19.92;;;;;;;;;;5090386;28;20024;-59
2023/08/30 02:40:12;;;;;;;28.45;19.23;;;;;;;;;;5090531;28;20024;-55
2023/08/30 02:42:38;;;;;;;28.65;19.38;;;;;;;;;;5090383;28;20484;-58
2023/08/30 02:45:04;;;;;;;26.88;19.33;;;;;;;;;;5089963;28;20063;-57
2023/08/30 02:47:30;;;;;;;28.25;19.27;;;;;;;;;;5090419;28;20028;-59
2023/08/30 02:49:56;;;;;;;26.75;19.55;;;;;;;;;;5090548;28;20031;-57
2023/08/30 02:52:22;;;;;;;32.55;19.25;;;;;;;;;;5090459;28;20028;-58
2023/08/30 02:54:48;;;;;;;27.55;18.73;;;;;;;;;;5090077;28;20021;-59
2023/08/30 02:57:14;;;;;;;28.85;20.73;;;;;;;;;;5090255;28;20484;-59
2023/08/30 02:59:40;;;;;;;28.30;20.02;;;;;;;;;;5090542;28;20024;-59
2023/08/30 03:02:06;;;;;;;31.77;20.77;;;;;;;;;;5092411;28;20031;-57
2023/08/30 03:04:32;;;;;;;30.90;21.05;;;;;;;;;;5075521;28;20020;-59
2023/08/30 03:06:58;;;;;;;30.75;21.58;;;;;;;;;;5077452;28;20024;-59
2023/08/30 03:09:24;;;;;;;31.20;21.42;;;;;;;;;;5094145;28;20023;-59
2023/08/30 03:11:50;;;;;;;31.23;20.40;;;;;;;;;;5075849;28;20024;-59
2023/08/30 03:14:16;;;;;;;31.33;22.10;;;;;;;;;;5093685;28;20317;-59
2023/08/30 03:16:45;;;;;;;28.20;20.30;;;;;;;;;;5093690;28;20024;-59
2023/08/30 03:19:10;;;;;;;30.63;21.30;;;;;;;;;;5093745;28;20162;-59
2023/08/30 03:21:36;;;;;;;30.70;21.90;;;;;;;;;;5093637;28;20024;-59
2023/08/30 03:24:03;;;;;;;33.53;23.80;;;;;;;;;;5093447;28;20089;-55
2023/08/30 03:26:29;;;;;;;30.98;22.02;;;;;;;;;;5093492;28;20020;-59
2023/08/30 03:28:55;;;;;;;30.05;21.10;;;;;;;;;;5093172;28;20442;-59
2023/08/30 03:31:21;;;;;;;31.08;21.83;;;;;;;;;;5093557;28;20161;-58
2023/08/30 03:33:48;;;;;;;31.85;22.17;;;;;;;;;;5093197;28;20055;-60
2023/08/30 03:36:15;;;;;;;33.47;22.50;;;;;;;;;;5074655;28;20504;-59
2023/08/30 03:38:41;;;;;;;32.20;22.80;;;;;;;;;;5092848;28;20038;-58
2023/08/30 03:41:07;;;;;;;30.35;21.48;;;;;;;;;;5075038;28;20101;-57
2023/08/30 03:43:34;;;;;;;32.33;23.25;;;;;;;;;;5093031;28;20024;-60
2023/08/30 03:46:00;;;;;;;34.05;23.05;;;;;;;;;;5092438;28;20031;-58
2023/08/30 03:48:26;;;;;;;33.38;23.13;;;;;;;;;;5093054;28;20028;-58
2023/08/30 03:50:52;;;;;;;32.63;23.38;;;;;;;;;;5093108;28;20028;-60
2023/08/30 03:53:19;;;;;;;33.20;23.05;;;;;;;;;;5092889;28;20027;-55
2023/08/30 03:55:45;;;;;;;36.20;24.73;;;;;;;;;;5092657;28;20104;-58
2023/08/30 03:58:11;;;;;;;33.50;23.15;;;;;;;;;;5092778;28;20031;-57
2023/08/30 04:00:37;;;;;;;34.13;23.65;;;;;;;;;;5092817;28;20396;-59
2023/08/30 04:03:04;;;;;;;34.85;24.40;;;;;;;;;;5074596;28;20484;-58
2023/08/30 04:05:34;;;;;;;33.25;24.20;;;;;;;;;;5092423;28;20035;-59
2023/08/30 04:08:00;;;;;;;33.28;24.20;;;;;;;;;;5092733;28;20027;-59
2023/08/30 04:10:26;;;;;;;33.00;23.70;;;;;;;;;;5074508;28;20028;-58
2023/08/30 04:12:52;;;;;;;33.75;23.58;;;;;;;;;;5091485;28;20073;-59
2023/08/30 04:15:18;;;;;;;33.63;23.33;;;;;;;;;;5092109;28;20497;-55
2023/08/30 04:17:44;;;;;;;31.30;24.10;;;;;;;;;;5074404;28;20024;-57
2023/08/30 04:20:13;;;;;;;34.50;26.17;;;;;;;;;;5074287;28;20174;-58
2023/08/30 04:22:39;;;;;;;32.92;25.27;;;;;;;;;;5092542;28;20093;-58
2023/08/30 04:25:05;;;;;;;40.20;26.55;;;;;;;;;;5073904;28;20433;-57
2023/08/30 04:27:31;;;;;;;34.25;23.95;;;;;;;;;;5092440;28;20028;-59
2023/08/30 04:29:57;;;;;;;33.97;24.52;;;;;;;;;;5092242;28;20054;-58
2023/08/30 04:32:23;;;;;;;36.78;26.63;;;;;;;;;;5092118;28;20050;-59
2023/08/30 04:34:49;;;;;;;38.22;26.60;;;;;;;;;;5073595;28;20035;-58
2023/08/30 04:37:15;;;;;;;35.95;25.52;;;;;;;;;;5073926;28;20032;-59
2023/08/30 04:39:41;;;;;;;36.50;26.02;;;;;;;;;;5074007;28;20020;-55
2023/08/30 04:42:07;;;;;;;34.40;25.20;;;;;;;;;;5091950;28;20039;-56
2023/08/30 04:44:33;;;;;;;37.75;27.38;;;;;;;;;;5091760;28;20053;-58
2023/08/30 04:46:59;;;;;;;37.47;26.65;;;;;;;;;;5092041;28;20107;-58
2023/08/30 04:49:25;;;;;;;34.15;26.08;;;;;;;;;;5091894;28;20445;-58
2023/08/30 04:51:51;;;;;;;34.72;26.10;;;;;;;;;;5092025;28;20061;-55
2023/08/30 04:54:17;;;;;;;34.60;26.77;;;;;;;;;;5091673;28;20476;-57
2023/08/30 04:56:43;;;;;;;35.03;26.17;;;;;;;;;;5091550;28;20111;-58
2023/08/30 04:59:09;;;;;;;32.80;25.42;;;;;;;;;;5091509;28;20149;-61
2023/08/30 05:01:37;;;;;;;33.97;26.48;;;;;;;;;;5073125;28;20499;-59
2023/08/30 05:04:03;;;;;;;36.08;25.35;;;;;;;;;;5091122;28;20116;-57
2023/08/30 05:06:29;;;;;;;34.75;24.77;;;;;;;;;;5091194;28;20042;-57
2023/08/30 05:08:55;;;;;;;41.38;26.63;;;;;;;;;;5091915;28;20049;-57
2023/08/30 05:11:21;;;;;;;34.58;25.55;;;;;;;;;;5073168;28;20028;-58
2023/08/30 05:13:47;;;;;;;38.15;26.17;;;;;;;;;;5091229;28;20063;-58
2023/08/30 05:16:13;;;;;;;32.88;25.02;;;;;;;;;;5068983;28;20056;-58
2023/08/30 05:18:39;;;;;;;33.95;25.58;;;;;;;;;;5075249;28;20100;-54
2023/08/30 05:21:05;;;;;;;31.05;23.85;;;;;;;;;;5065826;28;20024;-55
2023/08/30 05:23:31;;;;;;;32.33;24.90;;;;;;;;;;5061927;28;20028;-59
2023/08/30 05:25:57;;;;;;;31.73;24.67;;;;;;;;;;5085037;28;20027;-59
2023/08/30 05:28:23;;;;;;;32.90;24.48;;;;;;;;;;5086797;28;20028;-57
2023/08/30 05:30:49;;;;;;;32.40;25.73;;;;;;;;;;5091208;28;20541;-59
2023/08/30 05:33:15;;;;;;;35.10;25.77;;;;;;;;;;5062025;28;20024;-58
2023/08/30 05:35:41;;;;;;;35.42;26.30;;;;;;;;;;5069718;28;20024;-57
2023/08/30 05:38:07;;;;;;;35.45;27.60;;;;;;;;;;5070152;28;20472;-58
2023/08/30 05:40:33;;;;;;;33.05;26.00;;;;;;;;;;5051847;28;20027;-59
2023/08/30 05:42:59;;;;;;;33.83;25.65;;;;;;;;;;5070283;28;20473;-54
2023/08/30 05:45:25;;;;;;;34.85;27.27;;;;;;;;;;5069938;28;20174;-54
2023/08/30 05:47:51;;;;;;;35.33;26.40;;;;;;;;;;5070210;28;20024;-56
2023/08/30 05:50:17;;;;;;;35.10;27.00;;;;;;;;;;5080199;28;20081;-56
2023/08/30 05:52:44;;;;;;;40.50;29.52;;;;;;;;;;5090340;28;20090;-55
2023/08/30 05:55:10;;;;;;;41.45;29.63;;;;;;;;;;5089480;28;20028;-51
2023/08/30 05:57:36;;;;;;;39.38;30.20;;;;;;;;;;5090019;28;20034;-55
2023/08/30 06:00:04;;;;;;;39.60;30.55;;;;;;;;;;5089860;28;20405;-54
2023/08/30 06:02:30;;;;;;;39.28;28.42;;;;;;;;;;5089577;28;20093;-53
2023/08/30 06:04:56;;;;;;;42.97;30.13;;;;;;;;;;5088971;28;20024;-54
2023/08/30 06:07:22;;;;;;;41.28;31.25;;;;;;;;;;5089710;28;20376;-53
2023/08/30 06:09:49;;;;;;;42.15;31.70;;;;;;;;;;5090121;28;20031;-50
2023/08/30 06:12:15;;;;;;;42.00;30.30;;;;;;;;;;5090069;28;20027;-54
2023/08/30 06:14:41;;;;;;;42.45;33.17;;;;;;;;;;5089443;28;20024;-47
2023/08/30 06:17:07;;;;;;;42.28;32.17;;;;;;;;;;5078532;28;20131;-49
2023/08/30 06:19:33;;;;;;;39.05;31.52;;;;;;;;;;5069906;28;20028;-55
2023/08/30 06:21:59;;;;;;;37.38;29.95;;;;;;;;;;5070239;28;20166;-51
2023/08/30 06:24:25;;;;;;;40.17;31.20;;;;;;;;;;5069630;28;20029;-53
2023/08/30 06:26:51;;;;;;;38.08;29.60;;;;;;;;;;5070113;28;20036;-54
2023/08/30 06:29:17;;;;;;;43.28;31.42;;;;;;;;;;5070065;28;20412;-54
2023/08/30 06:31:45;;;;;;;43.53;30.67;;;;;;;;;;5069822;28;20115;-52
2023/08/30 06:34:11;;;;;;;40.47;30.83;;;;;;;;;;5068941;28;20032;-57
2023/08/30 06:36:37;;;;;;;40.97;32.00;;;;;;;;;;5071315;28;20467;-54
2023/08/30 06:39:03;;;;;;;39.50;31.33;;;;;;;;;;5073194;28;20488;-53
2023/08/30 06:41:29;;;;;;;36.72;30.52;;;;;;;;;;5073781;28;20020;-53
2023/08/30 06:43:56;;;;;;;38.40;30.95;;;;;;;;;;5073088;28;20102;-54
2023/08/30 06:46:22;;;;;;;40.00;30.70;;;;;;;;;;5072949;28;20119;-53
2023/08/30 06:48:48;;;;;;;39.05;29.40;;;;;;;;;;5073301;28;20096;-54
2023/08/30 06:51:14;;;;;;;36.08;28.00;;;;;;;;;;5075277;28;20128;-54
2023/08/30 06:53:40;;;;;;;34.88;27.52;;;;;;;;;;5093562;28;20020;-54
2023/08/30 06:56:06;;;;;;;35.95;29.13;;;;;;;;;;5092580;28;20027;-54
2023/08/30 06:58:32;;;;;;;37.17;29.73;;;;;;;;;;5093414;28;20505;-56
2023/08/30 07:00:58;;;;;;;37.67;29.40;;;;;;;;;;5093492;28;20055;-56
2023/08/30 07:03:24;;;;;;;35.38;28.90;;;;;;;;;;5093695;28;20388;-56
2023/08/30 07:05:54;;;;;;;37.60;29.52;;;;;;;;;;5092775;28;20017;-54
2023/08/30 07:08:20;;;;;;;39.00;30.20;;;;;;;;;;5093537;28;20055;-53
2023/08/30 07:10:46;;;;;;;35.53;28.73;;;;;;;;;;5093188;28;20028;-55
2023/08/30 07:13:12;;;;;;;37.47;29.92;;;;;;;;;;5093306;28;20039;-60
2023/08/30 07:15:42;;;;;;;36.00;28.05;;;;;;;;;;5092360;28;20023;-60
2023/08/30 07:18:08;;;;;;;34.13;25.23;;;;;;;;;;5092583;28;20044;-59
2023/08/30 07:20:34;;;;;;;38.35;26.60;;;;;;;;;;5093332;28;20024;-56
2023/08/30 07:23:01;;;;;;;33.60;25.58;;;;;;;;;;5093824;28;20047;-57
2023/08/30 07:25:27;;;;;;;38.00;25.88;;;;;;;;;;5076854;28;20024;-59
2023/08/30 07:27:52;;;;;;;33.55;25.85;;;;;;;;;;5094556;28;20143;-59
2023/08/30 07:30:19;;;;;;;35.85;26.90;;;;;;;;;;5093372;28;20031;-59
2023/08/30 07:32:45;;;;;;;35.88;24.38;;;;;;;;;;5092320;28;20016;-59
2023/08/30 07:35:11;;;;;;;29.95;23.77;;;;;;;;;;5092352;28;20043;-57
2023/08/30 07:37:37;;;;;;;36.63;24.30;;;;;;;;;;5093143;28;20028;-59
2023/08/30 07:40:04;;;;;;;33.35;24.17;;;;;;;;;;5093142;28;20031;-58
2023/08/30 07:42:30;;;;;;;36.85;25.05;;;;;;;;;;5093210;28;20099;-57
2023/08/30 07:44:56;;;;;;;31.83;24.83;;;;;;;;;;5091914;28;20036;-55
2023/08/30 07:47:22;;;;;;;33.30;24.05;;;;;;;;;;5093040;28;20074;-59
2023/08/30 07:49:48;;;;;;;33.30;24.67;;;;;;;;;;5092401;28;20456;-58
2023/08/30 07:52:14;;;;;;;32.22;24.00;;;;;;;;;;5092948;28;20097;-59
2023/08/30 07:54:41;;;;;;;31.60;23.60;;;;;;;;;;5091924;28;20444;-59
2023/08/30 07:57:07;;;;;;;29.92;22.38;;;;;;;;;;5086596;28;20028;-58
2023/08/30 07:59:34;;;;;;;35.35;24.63;;;;;;;;;;5083836;28;20516;-59
2023/08/30 08:02:00;;;;;;;30.92;22.92;;;;;;;;;;5074211;28;20032;-58
2023/08/30 08:04:26;;;;;;;30.52;22.08;;;;;;;;;;5091342;28;20108;-56
2023/08/30 08:06:52;;;;;;;29.00;22.13;;;;;;;;;;5092740;28;20748;-59
2023/08/30 08:09:18;;;;;;;28.13;22.95;;;;;;;;;;5092487;28;20150;-58
2023/08/30 08:11:44;;;;;;;30.10;21.77;;;;;;;;;;5092333;28;20047;-59
2023/08/30 08:14:11;;;;;;;30.02;23.98;;;;;;;;;;5091584;28;20048;-56
2023/08/30 08:16:37;;;;;;;30.83;24.35;;;;;;;;;;5092113;28;20099;-57
2023/08/30 08:19:03;;;;;;;31.23;22.92;;;;;;;;;;5092039;28;20361;-58
2023/08/30 08:21:29;;;;;;;28.17;22.90;;;;;;;;;;5092174;28;20026;-57
2023/08/30 08:23:55;;;;;;;33.60;24.85;;;;;;;;;;5085179;28;20089;-58
2023/08/30 08:26:21;;;;;;;31.48;23.55;;;;;;;;;;5086495;28;20099;-59
2023/08/30 08:28:47;;;;;;;28.15;23.50;;;;;;;;;;5064431;28;20146;-54
2023/08/30 08:31:13;;;;;;;31.15;22.98;;;;;;;;;;5091955;28;20488;-59
2023/08/30 08:33:40;;;;;;;30.90;23.23;;;;;;;;;;5092344;28;20433;-57
2023/08/30 08:36:06;;;;;;;32.05;24.30;;;;;;;;;;5091855;28;20054;-56
2023/08/30 08:38:32;;;;;;;31.98;24.77;;;;;;;;;;5092894;28;20028;-58
2023/08/30 08:41:03;;;;;;;31.98;24.67;;;;;;;;;;5074646;28;20023;-60
2023/08/30 08:43:29;;;;;;;29.35;23.38;;;;;;;;;;5093117;28;20031;-54
2023/08/30 08:45:58;;;;;;;30.73;24.15;;;;;;;;;;5091812;28;20089;-58
2023/08/30 08:48:25;;;;;;;34.80;25.42;;;;;;;;;;5092472;28;20107;-57
2023/08/30 08:50:52;;;;;;;30.38;25.33;;;;;;;;;;5091741;28;20882;-56
2023/08/30 08:53:18;;;;;;;32.22;24.40;;;;;;;;;;5091680;28;20032;-59
2023/08/30 08:55:45;;;;;;;30.75;24.45;;;;;;;;;;5090536;28;20027;-56
2023/08/30 08:58:11;;;;;;;28.50;24.02;;;;;;;;;;5091452;28;20089;-58
2023/08/30 09:00:38;;;;;;;33.17;25.50;;;;;;;;;;5090783;28;20020;-55
2023/08/30 09:03:05;;;;;;;32.00;23.88;;;;;;;;;;5073292;28;20101;-59
2023/08/30 09:05:32;;;;;;;31.15;25.75;;;;;;;;;;5090495;28;20031;-57
2023/08/30 09:07:58;;;;;;;31.45;25.15;;;;;;;;;;5091439;28;20074;-55
2023/08/30 09:10:24;;;;;;;33.00;23.83;;;;;;;;;;5091054;28;20081;-57
2023/08/30 09:12:50;;;;;;;31.38;24.95;;;;;;;;;;5073116;28;20368;-54
2023/08/30 09:15:17;;;;;;;28.67;24.05;;;;;;;;;;5090217;28;20051;-59
2023/08/30 09:17:43;;;;;;;29.88;24.60;;;;;;;;;;5090584;28;20028;-59
2023/08/30 09:20:10;;;;;;;31.83;24.67;;;;;;;;;;5090856;28;20082;-57
2023/08/30 09:22:40;;;;;;;31.30;24.35;;;;;;;;;;5090780;28;20432;-58
2023/08/30 09:25:10;;;;;;;35.50;25.10;;;;;;;;;;5090378;28;20427;-55
2023/08/30 09:27:38;;;;;;;33.75;25.58;;;;;;;;;;5091048;28;20051;-54
2023/08/30 09:30:08;;;;;;;28.98;23.65;;;;;;;;;;5091075;28;20107;-56
2023/08/30 09:32:39;;;;;;;29.13;22.52;;;;;;;;;;5086475;28;20385;-57
2023/08/30 09:35:05;;;;;;;28.52;23.23;;;;;;;;;;5075179;28;20111;-57
2023/08/30 09:37:31;;;;;;;27.38;22.25;;;;;;;;;;5086502;28;20036;-55
2023/08/30 09:39:57;;;;;;;29.00;22.50;;;;;;;;;;5074345;28;20452;-56
2023/08/30 09:42:23;;;;;;;30.25;22.35;;;;;;;;;;5072583;28;20119;-57
2023/08/30 09:44:49;;;;;;;28.25;21.65;;;;;;;;;;4733107;28;10000461;-56
2023/08/30 09:47:15;;;;;;;28.10;22.40;;;;;;;;;;5077736;28;20435;-55
2023/08/30 09:49:45;;;;;;;29.65;23.38;;;;;;;;;;5078056;28;20089;-59
2023/08/30 09:52:12;;;;;;;29.98;22.73;;;;;;;;;;5066345;28;20519;-58
2023/08/30 09:54:41;;;;;;;28.10;22.08;;;;;;;;;;5066179;28;20031;-57
2023/08/30 09:57:07;;;;;;;;;;;;;;;;;;5078576;28;20095;-56
2023/08/30 09:59:33;;;;;;;27.83;21.52;;;;;;;;;;5074554;28;20026;-58
2023/08/30 10:02:00;;;;;;;27.23;20.88;;;;;;;;;;5069217;28;20064;-60
2023/08/30 10:04:27;;;;;;;27.25;20.63;;;;;;;;;;5074549;28;20539;-58
2023/08/30 10:06:54;;;;;;;25.40;20.63;;;;;;;;;;5085824;28;20031;-58
2023/08/30 10:09:20;;;;;;;27.27;19.70;;;;;;;;;;5081251;28;20032;-57
2023/08/30 10:11:46;;;;;;;25.30;20.73;;;;;;;;;;5082502;28;20033;-57
2023/08/30 10:14:13;;;;;;;25.30;20.35;;;;;;;;;;5081741;28;20068;-57
2023/08/30 10:16:45;;;;;;;24.45;18.85;;;;;;;;;;5083910;28;20020;-56
2023/08/30 10:19:15;;;;;;;24.85;19.00;;;;;;;;;;5085949;28;20032;-59
2023/08/30 10:21:41;;;;;;;23.50;18.27;;;;;;;;;;5083580;28;20174;-58
2023/08/30 10:24:09;;;;;;;25.38;18.98;;;;;;;;;;5083031;28;20417;-56
2023/08/30 10:26:36;;;;;;;25.40;19.00;;;;;;;;;;5073878;28;20024;-58
2023/08/30 10:29:03;;;;;;;23.98;18.08;;;;;;;;;;5056346;28;20039;-59
2023/08/30 10:31:29;;;;;;;23.67;18.13;;;;;;;;;;5073974;28;20028;-57
2023/08/30 10:33:55;;;;;;;21.20;17.05;;;;;;;;;;5073649;28;20040;-58
2023/08/30 10:36:23;;;;;;;22.65;18.15;;;;;;;;;;5074081;28;20063;-55
2023/08/30 10:38:50;;;;;;;22.73;17.40;;;;;;;;;;5073595;28;20035;-53
2023/08/30 10:41:20;;;;;;;22.60;17.05;;;;;;;;;;5073696;28;20735;-58
2023/08/30 10:43:51;;;;;;;20.35;16.15;;;;;;;;;;5073197;28;20090;-55
2023/08/30 10:46:18;;;;;;;21.95;15.90;;;;;;;;;;5085121;28;20048;-59
2023/08/30 10:48:44;;;;;;;21.63;16.05;;;;;;;;;;5094163;28;20061;-59
2023/08/30 10:51:36;;;;;;;20.52;15.77;;;;;;;;;;5093725;28;20179;-59
2023/08/30 10:54:10;;;;;;;19.52;15.00;;;;;;;;;;5093317;28;20401;-57
2023/08/30 10:56:46;;;;;;;21.67;15.23;;;;;;;;;;5093720;28;20047;-54
2023/08/30 10:59:17;;;;;;;21.55;15.55;;;;;;;;;;5075249;28;20028;-55
2023/08/30 11:01:44;;;;;;;21.25;16.58;;;;;;;;;;5093957;28;20074;-56
2023/08/30 11:04:10;;;;;;;21.65;15.93;;;;;;;;;;5090933;28;20077;-58
2023/08/30 11:06:38;;;;;;;23.02;18.33;;;;;;;;;;5073710;28;20044;-57
2023/08/30 11:09:04;;;;;;;23.95;18.17;;;;;;;;;;5056470;28;20028;-59
2023/08/30 11:11:30;;;;;;;22.20;19.50;;;;;;;;;;5091423;28;20563;-58
2023/08/30 11:14:04;;;;;;;29.17;26.17;;;;;;;;;;5080156;28;20082;-59
2023/08/30 11:16:30;;;;;;;29.35;26.23;;;;;;;;;;5073267;28;20106;-58
2023/08/30 11:18:56;;;;;;;29.75;25.73;;;;;;;;;;5082058;28;20027;-58
2023/08/30 11:21:22;;;;;;;31.58;27.10;;;;;;;;;;5085652;28;20028;-57
2023/08/30 11:23:48;;;;;;;29.27;26.40;;;;;;;;;;5077845;28;20052;-58
2023/08/30 11:26:14;;;;;;;30.13;27.00;;;;;;;;;;5054578;28;20029;-54
2023/08/30 11:28:48;;;;;;;38.50;34.53;;;;;;;;;;5073296;28;20036;-59
2023/08/30 11:31:22;;;;;;;39.15;35.50;;;;;;;;;;5072714;28;20032;-59
2023/08/30 11:33:52;;;;;;;43.03;39.30;;;;;;;;;;5072866;28;20039;-57
2023/08/30 11:36:18;;;;;;;42.65;38.95;;;;;;;;;;5073927;28;20392;-56
2023/08/30 11:38:45;;;;;;;46.03;41.92;;;;;;;;;;5091398;28;20031;-57
2023/08/30 11:41:12;;;;;;;44.80;40.60;;;;;;;;;;5081628;28;20141;-57
2023/08/30 11:43:39;;;;;;;45.88;41.67;;;;;;;;;;5064939;28;20031;-52
2023/08/30 11:46:05;;;;;;;44.78;40.88;;;;;;;;;;5085605;28;20085;-53
2023/08/30 11:48:31;;;;;;;42.10;38.45;;;;;;;;;;5085959;28;20119;-52
2023/08/30 11:50:57;;;;;;;41.53;37.80;;;;;;;;;;5081690;28;20510;-57
2023/08/30 11:53:23;;;;;;;42.50;38.63;;;;;;;;;;5082274;28;20089;-56
2023/08/30 11:55:49;;;;;;;43.25;38.97;;;;;;;;;;5071954;28;20385;-53
2023/08/30 11:58:15;;;;;;;41.75;37.92;;;;;;;;;;5072459;28;20029;-56
2023/08/30 12:00:41;;;;;;;41.13;37.40;;;;;;;;;;5072188;28;20035;-56
2023/08/30 12:03:07;;;;;;;41.78;38.08;;;;;;;;;;5072441;28;20100;-57
2023/08/30 12:05:35;;;;;;;44.08;40.17;;;;;;;;;;5071612;28;20044;-57
2023/08/30 12:08:01;;;;;;;40.70;37.00;;;;;;;;;;5072069;28;20020;-55
2023/08/30 12:10:29;;;;;;;41.03;37.13;;;;;;;;;;5072233;28;20039;-54
2023/08/30 12:12:56;;;;;;;43.60;39.70;;;;;;;;;;5062747;28;20028;-56
2023/08/30 12:15:25;;;;;;;44.85;40.72;;;;;;;;;;5057533;28;20078;-54
2023/08/30 12:17:51;;;;;;;42.97;39.05;;;;;;;;;;5079785;28;20032;-54
2023/08/30 12:20:20;;;;;;;41.92;38.03;;;;;;;;;;5080529;28;20429;-52
2023/08/30 12:22:47;;;;;;;41.75;37.83;;;;;;;;;;5082299;28;20048;-53
2023/08/30 12:25:17;;;;;;;41.42;37.53;;;;;;;;;;5080212;28;20081;-53
2023/08/30 12:27:43;;;;;;;42.15;38.13;;;;;;;;;;5080727;28;20042;-58
2023/08/30 12:30:10;;;;;;;43.45;39.45;;;;;;;;;;5078068;28;20032;-54
2023/08/30 12:32:36;;;;;;;44.58;40.42;;;;;;;;;;5085293;28;20024;-56
2023/08/30 12:35:03;;;;;;;43.38;39.45;;;;;;;;;;5084796;28;20124;-57
2023/08/30 12:37:29;;;;;;;42.72;38.63;;;;;;;;;;5083455;28;20020;-50
2023/08/30 12:39:55;;;;;;;44.03;39.90;;;;;;;;;;5092274;28;20031;-50
2023/08/30 12:42:21;;;;;;;44.33;40.13;;;;;;;;;;5055109;28;20515;-47
2023/08/30 12:44:47;;;;;;;45.50;41.35;;;;;;;;;;5055152;28;20024;-52
2023/08/30 12:47:14;;;;;;;43.72;39.88;;;;;;;;;;5089479;28;20086;-47
2023/08/30 12:49:40;;;;;;;45.63;41.58;;;;;;;;;;5092181;28;20024;-47
2023/08/30 12:52:06;;;;;;;45.50;41.60;;;;;;;;;;5091341;28;20028;-46
2023/08/30 12:54:32;;;;;;;46.13;41.85;;;;;;;;;;5076029;28;20025;-49
2023/08/30 12:56:58;;;;;;;48.03;43.38;;;;;;;;;;5070684;28;20032;-50
2023/08/30 12:59:24;;;;;;;47.97;43.40;;;;;;;;;;5071118;28;20401;-51
2023/08/30 13:01:50;;;;;;;45.53;41.45;;;;;;;;;;5071443;28;20104;-51
2023/08/30 13:04:16;;;;;;;45.25;41.15;;;;;;;;;;5084461;28;20016;-51
2023/08/30 13:06:42;;;;;;;44.10;40.10;;;;;;;;;;5084515;28;20043;-47
2023/08/30 13:09:08;;;;;;;41.80;38.10;;;;;;;;;;5085948;28;20115;-47
2023/08/30 13:11:34;;;;;;;42.13;38.05;;;;;;;;;;5089648;28;20732;-49
2023/08/30 13:14:00;;;;;;;43.60;38.55;;;;;;;;;;5090815;28;20028;-47
2023/08/30 13:16:26;;;;;;;40.75;37.05;;;;;;;;;;5092082;28;20507;-47
2023/08/30 13:18:52;;;;;;;39.83;36.10;;;;;;;;;;5091756;28;20020;-47
2023/08/30 13:21:18;;;;;;;39.00;35.58;;;;;;;;;;5091529;28;20116;-50
2023/08/30 13:23:44;;;;;;;38.45;35.00;;;;;;;;;;5092007;28;20024;-51
2023/08/30 13:26:10;;;;;;;36.67;33.47;;;;;;;;;;5090989;28;20032;-48
2023/08/30 13:28:36;;;;;;;35.92;32.80;;;;;;;;;;5090995;28;20055;-53
2023/08/30 13:31:02;;;;;;;34.97;32.05;;;;;;;;;;5090663;28;20784;-49
2023/08/30 13:33:28;;;;;;;33.28;30.38;;;;;;;;;;5091331;28;20035;-48
2023/08/30 13:35:54;;;;;;;32.78;29.88;;;;;;;;;;5090121;28;20032;-51
2023/08/30 13:38:22;;;;;;;31.92;29.13;;;;;;;;;;5091180;28;20471;-49
2023/08/30 13:40:48;;;;;;;31.15;28.45;;;;;;;;;;5091020;28;20021;-51
2023/08/30 13:43:14;;;;;;;29.38;26.67;;;;;;;;;;5091194;28;20028;-54
2023/08/30 13:45:40;;;;;;;29.02;26.42;;;;;;;;;;5088903;28;20059;-50
2023/08/30 13:48:06;;;;;;;30.88;28.17;;;;;;;;;;5089260;28;20028;-49
2023/08/30 13:50:32;;;;;;;30.52;27.58;;;;;;;;;;5079935;28;20028;-47
2023/08/30 13:52:59;;;;;;;31.88;28.92;;;;;;;;;;5089453;28;20511;-49
2023/08/30 13:55:25;;;;;;;31.58;28.67;;;;;;;;;;5052226;28;20043;-52
2023/08/30 13:57:51;;;;;;;32.38;29.48;;;;;;;;;;5070452;28;20030;-53
2023/08/30 14:00:17;;;;;;;32.65;29.75;;;;;;;;;;5070823;28;20016;-52
2023/08/30 14:02:43;;;;;;;33.42;30.25;;;;;;;;;;5083944;28;20036;-52
2023/08/30 14:05:09;;;;;;;33.90;30.80;;;;;;;;;;5072048;28;20051;-47
2023/08/30 14:07:35;;;;;;;34.25;31.02;;;;;;;;;;5089340;28;20028;-53
2023/08/30 14:10:01;;;;;;;34.78;31.48;;;;;;;;;;5085591;28;20073;-53
2023/08/30 14:12:27;;;;;;;36.33;33.05;;;;;;;;;;5082552;28;20109;-50
2023/08/30 14:14:53;;;;;;;36.15;32.95;;;;;;;;;;5089734;28;20353;-50